sensor_id;sensor_type;location;lat;lon;timestamp;pressure;altitude;pressure_sealevel;temperature
14784;BMP180;7483;50.498;12.138;2023-02-01T00:01:17;142839.00;;;289.30
14784;BMP180;7483;50.498;12.138;2023-02-01T00:03:45;142809.00;;;289.30
14784;BMP180;7483;50.498;12.138;2023-02-01T00:06:13;142804.00;;;289.30
14784;BMP180;7483;50.498;12.138;2023-02-01T00:08:41;142797.00;;;289.30
14784;BMP180;7483;50.498;12.138;2023-02-01T00:11:11;142849.00;;;289.30
14784;BMP180;7483;50.498;12.138;2023-02-01T00:13:41;142710.00;;;289.20
14784;BMP180;7483;50.498;12.138;2023-02-01T00:16:12;142672.00;;;289.10
14784;BMP180;7483;50.498;12.138;2023-02-01T00:18:42;142699.00;;;289.20
14784;BMP180;7483;50.498;12.138;2023-02-01T00:21:11;142673.00;;;289.10
14784;BMP180;7483;50.498;12.138;2023-02-01T00:23:39;142569.00;;;289.20
14784;BMP180;7483;50.498;12.138;2023-02-01T00:26:14;142728.00;;;289.20
14784;BMP180;7483;50.498;12.138;2023-02-01T00:28:43;142712.00;;;289.20
14784;BMP180;7483;50.498;12.138;2023-02-01T00:31:11;142633.00;;;289.20
14784;BMP180;7483;50.498;12.138;2023-02-01T00:33:39;142703.00;;;289.20
14784;BMP180;7483;50.498;12.138;2023-02-01T00:36:09;142671.00;;;289.20
14784;BMP180;7483;50.498;12.138;2023-02-01T00:38:38;142734.00;;;289.20
14784;BMP180;7483;50.498;12.138;2023-02-01T00:41:10;142615.00;;;289.10
14784;BMP180;7483;50.498;12.138;2023-02-01T00:43:39;142745.00;;;289.20
14784;BMP180;7483;50.498;12.138;2023-02-01T00:46:07;142695.00;;;289.10
14784;BMP180;7483;50.498;12.138;2023-02-01T00:48:36;142587.00;;;289.00
14784;BMP180;7483;50.498;12.138;2023-02-01T00:51:08;142654.00;;;289.00
14784;BMP180;7483;50.498;12.138;2023-02-01T00:53:37;142671.00;;;289.10
14784;BMP180;7483;50.498;12.138;2023-02-01T00:56:06;142597.00;;;289.00
14784;BMP180;7483;50.498;12.138;2023-02-01T00:58:34;142536.00;;;288.90
14784;BMP180;7483;50.498;12.138;2023-02-01T01:01:05;142402.00;;;288.80
14784;BMP180;7483;50.498;12.138;2023-02-01T01:03:36;142510.00;;;288.90
14784;BMP180;7483;50.498;12.138;2023-02-01T01:06:08;142501.00;;;288.90
14784;BMP180;7483;50.498;12.138;2023-02-01T01:08:38;142534.00;;;288.90
14784;BMP180;7483;50.498;12.138;2023-02-01T01:11:08;142421.00;;;288.80
14784;BMP180;7483;50.498;12.138;2023-02-01T01:13:36;142371.00;;;288.80
14784;BMP180;7483;50.498;12.138;2023-02-01T01:16:06;142426.00;;;288.80
14784;BMP180;7483;50.498;12.138;2023-02-01T01:18:35;142440.00;;;288.70
14784;BMP180;7483;50.498;12.138;2023-02-01T01:21:05;142417.00;;;288.70
14784;BMP180;7483;50.498;12.138;2023-02-01T01:23:35;142432.00;;;288.70
14784;BMP180;7483;50.498;12.138;2023-02-01T01:26:06;142434.00;;;288.70
14784;BMP180;7483;50.498;12.138;2023-02-01T01:28:34;142429.00;;;288.70
14784;BMP180;7483;50.498;12.138;2023-02-01T01:31:07;142506.00;;;288.80
14784;BMP180;7483;50.498;12.138;2023-02-01T01:33:36;142603.00;;;288.90
14784;BMP180;7483;50.498;12.138;2023-02-01T01:36:05;142526.00;;;288.90
14784;BMP180;7483;50.498;12.138;2023-02-01T01:38:35;142719.00;;;289.00
14784;BMP180;7483;50.498;12.138;2023-02-01T01:41:03;142741.00;;;289.10
14784;BMP180;7483;50.498;12.138;2023-02-01T01:43:49;142668.00;;;289.10
14784;BMP180;7483;50.498;12.138;2023-02-01T01:46:20;142639.00;;;289.00
14784;BMP180;7483;50.498;12.138;2023-02-01T01:48:55;142608.00;;;289.00
14784;BMP180;7483;50.498;12.138;2023-02-01T01:51:28;142603.00;;;289.00
14784;BMP180;7483;50.498;12.138;2023-02-01T01:54:06;142734.00;;;289.10
14784;BMP180;7483;50.498;12.138;2023-02-01T01:56:36;142673.00;;;289.10
14784;BMP180;7483;50.498;12.138;2023-02-01T01:59:05;142701.00;;;289.10
14784;BMP180;7483;50.498;12.138;2023-02-01T02:01:33;142573.00;;;289.00
14784;BMP180;7483;50.498;12.138;2023-02-01T02:04:02;142710.00;;;289.10
14784;BMP180;7483;50.498;12.138;2023-02-01T02:06:39;142752.00;;;289.20
14784;BMP180;7483;50.498;12.138;2023-02-01T02:09:09;142630.00;;;289.10
14784;BMP180;7483;50.498;12.138;2023-02-01T02:11:37;142616.00;;;289.10
14784;BMP180;7483;50.498;12.138;2023-02-01T02:14:10;142681.00;;;289.10
14784;BMP180;7483;50.498;12.138;2023-02-01T02:16:52;142595.00;;;289.10
14784;BMP180;7483;50.498;12.138;2023-02-01T02:20:02;142570.00;;;289.10
14784;BMP180;7483;50.498;12.138;2023-02-01T02:23:22;142581.00;;;289.10
14784;BMP180;7483;50.498;12.138;2023-02-01T02:29:37;142689.00;;;289.20
14784;BMP180;7483;50.498;12.138;2023-02-01T02:32:44;142506.00;;;289.00
14784;BMP180;7483;50.498;12.138;2023-02-01T02:35:30;142536.00;;;289.00
14784;BMP180;7483;50.498;12.138;2023-02-01T02:38:12;142498.00;;;289.00
14784;BMP180;7483;50.498;12.138;2023-02-01T02:40:51;142607.00;;;289.10
14784;BMP180;7483;50.498;12.138;2023-02-01T02:43:31;142642.00;;;289.10
14784;BMP180;7483;50.498;12.138;2023-02-01T02:46:24;142597.00;;;289.10
14784;BMP180;7483;50.498;12.138;2023-02-01T02:49:17;142498.00;;;289.20
14784;BMP180;7483;50.498;12.138;2023-02-01T02:51:54;142657.00;;;289.20
14784;BMP180;7483;50.498;12.138;2023-02-01T02:54:46;142523.00;;;289.10
14784;BMP180;7483;50.498;12.138;2023-02-01T02:57:21;142592.00;;;289.20
14784;BMP180;7483;50.498;12.138;2023-02-01T03:00:12;142710.00;;;289.30
14784;BMP180;7483;50.498;12.138;2023-02-01T03:02:58;142664.00;;;289.20
14784;BMP180;7483;50.498;12.138;2023-02-01T03:05:47;142709.00;;;289.30
14784;BMP180;7483;50.498;12.138;2023-02-01T03:08:21;142579.00;;;289.10
14784;BMP180;7483;50.498;12.138;2023-02-01T03:10:57;142628.00;;;289.20
14784;BMP180;7483;50.498;12.138;2023-02-01T03:13:44;142662.00;;;289.20
14784;BMP180;7483;50.498;12.138;2023-02-01T03:16:17;142532.00;;;289.00
14784;BMP180;7483;50.498;12.138;2023-02-01T03:18:55;142479.00;;;289.00
14784;BMP180;7483;50.498;12.138;2023-02-01T03:21:28;142495.00;;;289.10
14784;BMP180;7483;50.498;12.138;2023-02-01T03:24:04;142328.00;;;289.10
14784;BMP180;7483;50.498;12.138;2023-02-01T03:26:39;142455.00;;;289.10
14784;BMP180;7483;50.498;12.138;2023-02-01T03:29:16;142442.00;;;289.10
14784;BMP180;7483;50.498;12.138;2023-02-01T03:31:45;142441.00;;;289.10
14784;BMP180;7483;50.498;12.138;2023-02-01T03:34:13;142471.00;;;289.10
14784;BMP180;7483;50.498;12.138;2023-02-01T03:36:48;142472.00;;;289.10
14784;BMP180;7483;50.498;12.138;2023-02-01T03:39:26;142457.00;;;289.10
14784;BMP180;7483;50.498;12.138;2023-02-01T03:42:01;142564.00;;;289.10
14784;BMP180;7483;50.498;12.138;2023-02-01T03:44:34;142464.00;;;289.10
14784;BMP180;7483;50.498;12.138;2023-02-01T03:47:08;142581.00;;;289.20
14784;BMP180;7483;50.498;12.138;2023-02-01T03:49:44;142478.00;;;289.20
14784;BMP180;7483;50.498;12.138;2023-02-01T03:52:17;142471.00;;;289.10
14784;BMP180;7483;50.498;12.138;2023-02-01T03:54:50;142385.00;;;289.00
14784;BMP180;7483;50.498;12.138;2023-02-01T03:57:25;142393.00;;;289.10
14784;BMP180;7483;50.498;12.138;2023-02-01T04:00:06;142330.00;;;289.00
14784;BMP180;7483;50.498;12.138;2023-02-01T04:02:39;142344.00;;;288.90
14784;BMP180;7483;50.498;12.138;2023-02-01T04:05:08;142264.00;;;288.90
14784;BMP180;7483;50.498;12.138;2023-02-01T04:07:43;142182.00;;;288.70
14784;BMP180;7483;50.498;12.138;2023-02-01T04:10:13;142170.00;;;288.70
14784;BMP180;7483;50.498;12.138;2023-02-01T04:12:43;142160.00;;;288.70
14784;BMP180;7483;50.498;12.138;2023-02-01T04:15:11;142181.00;;;288.70
14784;BMP180;7483;50.498;12.138;2023-02-01T04:17:39;142292.00;;;288.80
14784;BMP180;7483;50.498;12.138;2023-02-01T04:20:09;142295.00;;;288.80
14784;BMP180;7483;50.498;12.138;2023-02-01T04:22:37;142242.00;;;288.70
14784;BMP180;7483;50.498;12.138;2023-02-01T04:25:07;142278.00;;;288.80
14784;BMP180;7483;50.498;12.138;2023-02-01T04:27:37;142187.00;;;288.70
14784;BMP180;7483;50.498;12.138;2023-02-01T04:30:06;142336.00;;;288.80
14784;BMP180;7483;50.498;12.138;2023-02-01T04:32:36;142269.00;;;288.80
14784;BMP180;7483;50.498;12.138;2023-02-01T04:35:06;142136.00;;;288.70
14784;BMP180;7483;50.498;12.138;2023-02-01T04:37:35;142263.00;;;288.80
14784;BMP180;7483;50.498;12.138;2023-02-01T04:40:04;142203.00;;;288.80
14784;BMP180;7483;50.498;12.138;2023-02-01T04:42:32;142112.00;;;288.70
14784;BMP180;7483;50.498;12.138;2023-02-01T04:45:02;142148.00;;;288.70
14784;BMP180;7483;50.498;12.138;2023-02-01T04:47:30;142171.00;;;288.80
14784;BMP180;7483;50.498;12.138;2023-02-01T04:49:58;142166.00;;;288.80
14784;BMP180;7483;50.498;12.138;2023-02-01T04:52:26;142178.00;;;288.80
14784;BMP180;7483;50.498;12.138;2023-02-01T04:54:54;142188.00;;;288.90
14784;BMP180;7483;50.498;12.138;2023-02-01T04:57:25;142145.00;;;288.90
14784;BMP180;7483;50.498;12.138;2023-02-01T04:59:53;142150.00;;;288.80
14784;BMP180;7483;50.498;12.138;2023-02-01T05:02:22;142188.00;;;288.80
14784;BMP180;7483;50.498;12.138;2023-02-01T05:04:50;142293.00;;;288.90
14784;BMP180;7483;50.498;12.138;2023-02-01T05:07:18;142286.00;;;288.90
14784;BMP180;7483;50.498;12.138;2023-02-01T05:09:46;142188.00;;;288.90
14784;BMP180;7483;50.498;12.138;2023-02-01T05:12:14;142187.00;;;288.90
14784;BMP180;7483;50.498;12.138;2023-02-01T05:15:00;142226.00;;;288.90
14784;BMP180;7483;50.498;12.138;2023-02-01T05:17:29;142239.00;;;289.00
14784;BMP180;7483;50.498;12.138;2023-02-01T05:19:57;142187.00;;;289.00
14784;BMP180;7483;50.498;12.138;2023-02-01T05:22:25;142255.00;;;289.10
14784;BMP180;7483;50.498;12.138;2023-02-01T05:24:53;142341.00;;;289.10
14784;BMP180;7483;50.498;12.138;2023-02-01T05:27:21;142380.00;;;289.10
14784;BMP180;7483;50.498;12.138;2023-02-01T05:29:49;142286.00;;;289.10
14784;BMP180;7483;50.498;12.138;2023-02-01T05:32:17;142317.00;;;289.10
14784;BMP180;7483;50.498;12.138;2023-02-01T05:34:50;142250.00;;;289.10
14784;BMP180;7483;50.498;12.138;2023-02-01T05:37:18;142377.00;;;289.20
14784;BMP180;7483;50.498;12.138;2023-02-01T05:39:46;142389.00;;;289.20
14784;BMP180;7483;50.498;12.138;2023-02-01T05:42:14;142420.00;;;289.30
14784;BMP180;7483;50.498;12.138;2023-02-01T05:44:42;142415.00;;;289.30
14784;BMP180;7483;50.498;12.138;2023-02-01T05:47:10;142431.00;;;289.30
14784;BMP180;7483;50.498;12.138;2023-02-01T05:49:39;142420.00;;;289.30
14784;BMP180;7483;50.498;12.138;2023-02-01T05:52:08;142459.00;;;289.40
14784;BMP180;7483;50.498;12.138;2023-02-01T05:54:36;142387.00;;;289.40
14784;BMP180;7483;50.498;12.138;2023-02-01T05:57:04;142387.00;;;289.40
14784;BMP180;7483;50.498;12.138;2023-02-01T05:59:32;142417.00;;;289.40
14784;BMP180;7483;50.498;12.138;2023-02-01T06:02:00;142470.00;;;289.40
14784;BMP180;7483;50.498;12.138;2023-02-01T06:04:28;142374.00;;;289.40
14784;BMP180;7483;50.498;12.138;2023-02-01T06:06:55;142535.00;;;289.20
14784;BMP180;7483;50.498;12.138;2023-02-01T06:09:25;142477.00;;;289.20
14784;BMP180;7483;50.498;12.138;2023-02-01T06:11:53;142446.00;;;289.50
14784;BMP180;7483;50.498;12.138;2023-02-01T06:14:21;142460.00;;;289.50
14784;BMP180;7483;50.498;12.138;2023-02-01T06:16:48;142489.00;;;289.50
14784;BMP180;7483;50.498;12.138;2023-02-01T06:19:16;142545.00;;;289.50
14784;BMP180;7483;50.498;12.138;2023-02-01T06:21:44;142560.00;;;289.50
14784;BMP180;7483;50.498;12.138;2023-02-01T06:24:13;142512.00;;;289.50
14784;BMP180;7483;50.498;12.138;2023-02-01T06:26:43;142598.00;;;289.50
14784;BMP180;7483;50.498;12.138;2023-02-01T06:29:11;142588.00;;;289.50
14784;BMP180;7483;50.498;12.138;2023-02-01T06:31:40;142519.00;;;289.50
14784;BMP180;7483;50.498;12.138;2023-02-01T06:34:09;142423.00;;;289.60
14784;BMP180;7483;50.498;12.138;2023-02-01T06:36:37;142632.00;;;289.60
14784;BMP180;7483;50.498;12.138;2023-02-01T06:39:06;142635.00;;;289.70
14784;BMP180;7483;50.498;12.138;2023-02-01T06:41:34;142632.00;;;289.60
14784;BMP180;7483;50.498;12.138;2023-02-01T06:44:03;142504.00;;;289.70
14784;BMP180;7483;50.498;12.138;2023-02-01T06:46:31;142561.00;;;289.70
14784;BMP180;7483;50.498;12.138;2023-02-01T06:48:59;142625.00;;;289.70
14784;BMP180;7483;50.498;12.138;2023-02-01T06:51:28;142655.00;;;289.70
14784;BMP180;7483;50.498;12.138;2023-02-01T06:53:57;142644.00;;;289.60
14784;BMP180;7483;50.498;12.138;2023-02-01T06:56:26;142602.00;;;289.70
14784;BMP180;7483;50.498;12.138;2023-02-01T06:58:54;142555.00;;;289.50
14784;BMP180;7483;50.498;12.138;2023-02-01T07:01:23;142428.00;;;289.50
14784;BMP180;7483;50.498;12.138;2023-02-01T07:03:51;142505.00;;;289.50
14784;BMP180;7483;50.498;12.138;2023-02-01T07:06:19;142374.00;;;289.40
14784;BMP180;7483;50.498;12.138;2023-02-01T07:08:48;142525.00;;;289.40
14784;BMP180;7483;50.498;12.138;2023-02-01T07:11:18;142377.00;;;289.50
14784;BMP180;7483;50.498;12.138;2023-02-01T07:13:46;142407.00;;;289.30
14784;BMP180;7483;50.498;12.138;2023-02-01T07:16:17;142496.00;;;289.40
14784;BMP180;7483;50.498;12.138;2023-02-01T07:18:48;142496.00;;;289.40
14784;BMP180;7483;50.498;12.138;2023-02-01T07:21:17;142382.00;;;289.30
14784;BMP180;7483;50.498;12.138;2023-02-01T07:23:46;142401.00;;;289.30
14784;BMP180;7483;50.498;12.138;2023-02-01T07:26:14;142399.00;;;289.30
14784;BMP180;7483;50.498;12.138;2023-02-01T07:28:43;142423.00;;;289.40
14784;BMP180;7483;50.498;12.138;2023-02-01T07:31:14;142478.00;;;289.40
14784;BMP180;7483;50.498;12.138;2023-02-01T07:33:46;142411.00;;;289.40
14784;BMP180;7483;50.498;12.138;2023-02-01T07:36:16;142337.00;;;289.50
14784;BMP180;7483;50.498;12.138;2023-02-01T07:38:45;142383.00;;;289.50
14784;BMP180;7483;50.498;12.138;2023-02-01T07:41:14;142464.00;;;289.60
14784;BMP180;7483;50.498;12.138;2023-02-01T07:43:43;142500.00;;;289.60
14784;BMP180;7483;50.498;12.138;2023-02-01T07:46:11;142513.00;;;289.70
14784;BMP180;7483;50.498;12.138;2023-02-01T07:48:42;142653.00;;;289.90
14784;BMP180;7483;50.498;12.138;2023-02-01T07:51:14;142672.00;;;290.00
14784;BMP180;7483;50.498;12.138;2023-02-01T07:53:44;142675.00;;;290.00
14784;BMP180;7483;50.498;12.138;2023-02-01T07:56:15;142674.00;;;290.00
14784;BMP180;7483;50.498;12.138;2023-02-01T07:58:47;142711.00;;;290.00
14784;BMP180;7483;50.498;12.138;2023-02-01T08:01:17;142705.00;;;290.10
14784;BMP180;7483;50.498;12.138;2023-02-01T08:03:53;142674.00;;;290.20
14784;BMP180;7483;50.498;12.138;2023-02-01T08:06:26;142788.00;;;290.20
14784;BMP180;7483;50.498;12.138;2023-02-01T08:08:54;142792.00;;;290.30
14784;BMP180;7483;50.498;12.138;2023-02-01T08:11:24;142851.00;;;290.10
14784;BMP180;7483;50.498;12.138;2023-02-01T08:13:52;142868.00;;;290.40
14784;BMP180;7483;50.498;12.138;2023-02-01T08:16:22;142949.00;;;290.40
14784;BMP180;7483;50.498;12.138;2023-02-01T08:18:51;143033.00;;;290.50
14784;BMP180;7483;50.498;12.138;2023-02-01T08:21:25;142953.00;;;290.50
14784;BMP180;7483;50.498;12.138;2023-02-01T08:23:53;143001.00;;;290.50
14784;BMP180;7483;50.498;12.138;2023-02-01T08:26:25;143059.00;;;290.60
14784;BMP180;7483;50.498;12.138;2023-02-01T08:28:56;143068.00;;;290.60
14784;BMP180;7483;50.498;12.138;2023-02-01T08:31:27;143114.00;;;290.60
14784;BMP180;7483;50.498;12.138;2023-02-01T08:33:58;143115.00;;;290.70
14784;BMP180;7483;50.498;12.138;2023-02-01T08:36:30;143102.00;;;290.70
14784;BMP180;7483;50.498;12.138;2023-02-01T08:38:58;143151.00;;;290.70
14784;BMP180;7483;50.498;12.138;2023-02-01T08:41:28;142970.00;;;290.70
14784;BMP180;7483;50.498;12.138;2023-02-01T08:43:58;143156.00;;;290.70
14784;BMP180;7483;50.498;12.138;2023-02-01T08:46:26;143173.00;;;290.70
14784;BMP180;7483;50.498;12.138;2023-02-01T08:48:55;143231.00;;;290.80
14784;BMP180;7483;50.498;12.138;2023-02-01T08:51:23;143218.00;;;290.70
14784;BMP180;7483;50.498;12.138;2023-02-01T08:53:53;143355.00;;;290.80
14784;BMP180;7483;50.498;12.138;2023-02-01T08:56:20;143776.00;;;290.60
14784;BMP180;7483;50.498;12.138;2023-02-01T08:58:49;143850.00;;;290.70
14784;BMP180;7483;50.498;12.138;2023-02-01T09:01:17;143773.00;;;290.60
14784;BMP180;7483;50.498;12.138;2023-02-01T09:03:45;143812.00;;;290.60
14784;BMP180;7483;50.498;12.138;2023-02-01T09:06:14;143831.00;;;290.60
14784;BMP180;7483;50.498;12.138;2023-02-01T09:08:43;143759.00;;;290.60
14784;BMP180;7483;50.498;12.138;2023-02-01T09:11:15;143780.00;;;290.60
14784;BMP180;7483;50.498;12.138;2023-02-01T09:13:44;143712.00;;;290.60
14784;BMP180;7483;50.498;12.138;2023-02-01T09:16:12;143799.00;;;290.70
14784;BMP180;7483;50.498;12.138;2023-02-01T09:18:40;143789.00;;;290.60
14784;BMP180;7483;50.498;12.138;2023-02-01T09:21:22;143741.00;;;290.60
14784;BMP180;7483;50.498;12.138;2023-02-01T09:23:51;143729.00;;;290.60
14784;BMP180;7483;50.498;12.138;2023-02-01T09:26:21;143549.00;;;290.50
14784;BMP180;7483;50.498;12.138;2023-02-01T09:28:57;143809.00;;;290.70
14784;BMP180;7483;50.498;12.138;2023-02-01T09:31:25;143713.00;;;290.60
14784;BMP180;7483;50.498;12.138;2023-02-01T09:33:53;143790.00;;;290.70
14784;BMP180;7483;50.498;12.138;2023-02-01T09:36:21;143771.00;;;290.60
14784;BMP180;7483;50.498;12.138;2023-02-01T09:38:50;143870.00;;;290.80
14784;BMP180;7483;50.498;12.138;2023-02-01T09:41:35;143913.00;;;290.80
14784;BMP180;7483;50.498;12.138;2023-02-01T09:44:17;143948.00;;;290.90
14784;BMP180;7483;50.498;12.138;2023-02-01T09:46:54;144039.00;;;291.00
14784;BMP180;7483;50.498;12.138;2023-02-01T09:49:30;144028.00;;;291.00
14784;BMP180;7483;50.498;12.138;2023-02-01T09:52:02;144089.00;;;291.00
14784;BMP180;7483;50.498;12.138;2023-02-01T09:54:42;144053.00;;;291.00
14784;BMP180;7483;50.498;12.138;2023-02-01T09:57:19;143997.00;;;290.90
14784;BMP180;7483;50.498;12.138;2023-02-01T09:59:56;143980.00;;;290.90
14784;BMP180;7483;50.498;12.138;2023-02-01T10:02:39;144054.00;;;290.90
14784;BMP180;7483;50.498;12.138;2023-02-01T10:05:15;144100.00;;;291.00
14784;BMP180;7483;50.498;12.138;2023-02-01T10:07:57;144101.00;;;291.00
14784;BMP180;7483;50.498;12.138;2023-02-01T10:10:34;144041.00;;;290.90
14784;BMP180;7483;50.498;12.138;2023-02-01T10:13:29;144084.00;;;291.00
14784;BMP180;7483;50.498;12.138;2023-02-01T10:16:16;144084.00;;;291.00
14784;BMP180;7483;50.498;12.138;2023-02-01T10:19:16;144103.00;;;291.00
14784;BMP180;7483;50.498;12.138;2023-02-01T10:21:58;144132.00;;;291.10
14784;BMP180;7483;50.498;12.138;2023-02-01T10:24:44;144184.00;;;291.20
14784;BMP180;7483;50.498;12.138;2023-02-01T10:27:20;144144.00;;;291.10
14784;BMP180;7483;50.498;12.138;2023-02-01T10:29:55;144273.00;;;291.20
14784;BMP180;7483;50.498;12.138;2023-02-01T10:32:30;144234.00;;;291.20
14784;BMP180;7483;50.498;12.138;2023-02-01T10:35:01;144207.00;;;291.10
14784;BMP180;7483;50.498;12.138;2023-02-01T10:37:32;144165.00;;;291.10
14784;BMP180;7483;50.498;12.138;2023-02-01T10:40:09;144232.00;;;291.00
14784;BMP180;7483;50.498;12.138;2023-02-01T10:42:40;144273.00;;;291.20
14784;BMP180;7483;50.498;12.138;2023-02-01T10:45:15;144229.00;;;291.20
14784;BMP180;7483;50.498;12.138;2023-02-01T10:47:46;144282.00;;;291.30
14784;BMP180;7483;50.498;12.138;2023-02-01T10:50:25;144236.00;;;291.30
14784;BMP180;7483;50.498;12.138;2023-02-01T10:53:02;144141.00;;;291.10
14784;BMP180;7483;50.498;12.138;2023-02-01T10:55:38;144156.00;;;291.20
14784;BMP180;7483;50.498;12.138;2023-02-01T10:58:15;144267.00;;;291.30
14784;BMP180;7483;50.498;12.138;2023-02-01T11:00:48;144232.00;;;291.40
14784;BMP180;7483;50.498;12.138;2023-02-01T11:03:33;144403.00;;;291.40
14784;BMP180;7483;50.498;12.138;2023-02-01T11:06:13;144435.00;;;291.50
14784;BMP180;7483;50.498;12.138;2023-02-01T11:08:48;144358.00;;;291.40
14784;BMP180;7483;50.498;12.138;2023-02-01T11:11:17;144506.00;;;291.60
14784;BMP180;7483;50.498;12.138;2023-02-01T11:13:54;144454.00;;;291.60
14784;BMP180;7483;50.498;12.138;2023-02-01T11:16:33;144655.00;;;291.80
14784;BMP180;7483;50.498;12.138;2023-02-01T11:19:03;144645.00;;;291.80
14784;BMP180;7483;50.498;12.138;2023-02-01T11:21:32;144658.00;;;291.90
14784;BMP180;7483;50.498;12.138;2023-02-01T11:24:03;144750.00;;;292.00
14784;BMP180;7483;50.498;12.138;2023-02-01T11:26:31;144808.00;;;292.10
14784;BMP180;7483;50.498;12.138;2023-02-01T11:29:05;144819.00;;;292.10
14784;BMP180;7483;50.498;12.138;2023-02-01T11:31:38;144845.00;;;292.10
14784;BMP180;7483;50.498;12.138;2023-02-01T11:34:13;144904.00;;;292.20
14784;BMP180;7483;50.498;12.138;2023-02-01T11:36:42;144800.00;;;292.10
14784;BMP180;7483;50.498;12.138;2023-02-01T11:39:26;144915.00;;;292.20
14784;BMP180;7483;50.498;12.138;2023-02-01T11:42:02;144838.00;;;292.20
14784;BMP180;7483;50.498;12.138;2023-02-01T11:44:36;144689.00;;;292.00
14784;BMP180;7483;50.498;12.138;2023-02-01T11:47:26;144726.00;;;292.00
14784;BMP180;7483;50.498;12.138;2023-02-01T11:49:57;144465.00;;;292.00
14784;BMP180;7483;50.498;12.138;2023-02-01T11:52:52;144666.00;;;291.90
14784;BMP180;7483;50.498;12.138;2023-02-01T11:55:52;144718.00;;;292.00
14784;BMP180;7483;50.498;12.138;2023-02-01T11:58:53;144388.00;;;291.60
14784;BMP180;7483;50.498;12.138;2023-02-01T12:01:44;144363.00;;;291.50
14784;BMP180;7483;50.498;12.138;2023-02-01T12:05:00;144325.00;;;291.50
14784;BMP180;7483;50.498;12.138;2023-02-01T12:07:52;144414.00;;;291.60
14784;BMP180;7483;50.498;12.138;2023-02-01T12:10:37;144439.00;;;291.60
14784;BMP180;7483;50.498;12.138;2023-02-01T12:13:23;144475.00;;;291.70
14784;BMP180;7483;50.498;12.138;2023-02-01T12:16:09;144470.00;;;291.60
14784;BMP180;7483;50.498;12.138;2023-02-01T12:19:20;144557.00;;;291.70
14784;BMP180;7483;50.498;12.138;2023-02-01T12:22:04;144620.00;;;291.80
14784;BMP180;7483;50.498;12.138;2023-02-01T12:25:00;144576.00;;;291.80
14784;BMP180;7483;50.498;12.138;2023-02-01T12:27:58;144654.00;;;291.90
14784;BMP180;7483;50.498;12.138;2023-02-01T12:31:05;144787.00;;;292.10
14784;BMP180;7483;50.498;12.138;2023-02-01T12:33:57;144779.00;;;292.10
14784;BMP180;7483;50.498;12.138;2023-02-01T12:36:38;144763.00;;;292.10
14784;BMP180;7483;50.498;12.138;2023-02-01T12:39:22;144861.00;;;292.30
14784;BMP180;7483;50.498;12.138;2023-02-01T12:42:01;144852.00;;;292.30
14784;BMP180;7483;50.498;12.138;2023-02-01T12:44:41;144839.00;;;292.30
14784;BMP180;7483;50.498;12.138;2023-02-01T12:47:19;144738.00;;;292.20
14784;BMP180;7483;50.498;12.138;2023-02-01T12:49:57;144799.00;;;292.20
14784;BMP180;7483;50.498;12.138;2023-02-01T12:52:34;144760.00;;;292.20
14784;BMP180;7483;50.498;12.138;2023-02-01T12:55:16;144691.00;;;292.10
14784;BMP180;7483;50.498;12.138;2023-02-01T12:57:50;144652.00;;;292.00
14784;BMP180;7483;50.498;12.138;2023-02-01T13:00:29;144643.00;;;292.00
14784;BMP180;7483;50.498;12.138;2023-02-01T13:03:06;144656.00;;;292.00
14784;BMP180;7483;50.498;12.138;2023-02-01T13:05:48;144578.00;;;291.90
14784;BMP180;7483;50.498;12.138;2023-02-01T13:08:24;144608.00;;;292.00
14784;BMP180;7483;50.498;12.138;2023-02-01T13:11:03;144685.00;;;292.10
14784;BMP180;7483;50.498;12.138;2023-02-01T13:13:42;144821.00;;;292.20
14784;BMP180;7483;50.498;12.138;2023-02-01T13:16:18;144750.00;;;292.20
14784;BMP180;7483;50.498;12.138;2023-02-01T13:18:58;144869.00;;;292.30
14784;BMP180;7483;50.498;12.138;2023-02-01T13:21:34;144724.00;;;292.10
14784;BMP180;7483;50.498;12.138;2023-02-01T13:24:04;144532.00;;;291.90
14784;BMP180;7483;50.498;12.138;2023-02-01T13:26:33;144472.00;;;291.80
14784;BMP180;7483;50.498;12.138;2023-02-01T13:29:06;144310.00;;;291.60
14784;BMP180;7483;50.498;12.138;2023-02-01T13:32:15;144130.00;;;291.60
14784;BMP180;7483;50.498;12.138;2023-02-01T13:35:17;144261.00;;;291.50
14784;BMP180;7483;50.498;12.138;2023-02-01T13:38:07;144264.00;;;291.50
14784;BMP180;7483;50.498;12.138;2023-02-01T13:40:44;144262.00;;;291.50
14784;BMP180;7483;50.498;12.138;2023-02-01T13:43:22;141938.00;;;292.60
14784;BMP180;7483;50.498;12.138;2023-02-01T13:45:53;142003.00;;;292.50
14784;BMP180;7483;50.498;12.138;2023-02-01T13:48:28;144254.00;;;291.50
14784;BMP180;7483;50.498;12.138;2023-02-01T13:50:59;144204.00;;;291.40
14784;BMP180;7483;50.498;12.138;2023-02-01T13:53:31;144190.00;;;291.40
14784;BMP180;7483;50.498;12.138;2023-02-01T13:56:02;144174.00;;;291.40
14784;BMP180;7483;50.498;12.138;2023-02-01T13:58:37;144077.00;;;291.30
14784;BMP180;7483;50.498;12.138;2023-02-01T14:01:42;144070.00;;;291.40
14784;BMP180;7483;50.498;12.138;2023-02-01T14:04:48;144128.00;;;291.40
14784;BMP180;7483;50.498;12.138;2023-02-01T14:07:20;144105.00;;;291.40
14784;BMP180;7483;50.498;12.138;2023-02-01T14:09:49;144098.00;;;291.50
14784;BMP180;7483;50.498;12.138;2023-02-01T14:12:44;144048.00;;;291.40
14784;BMP180;7483;50.498;12.138;2023-02-01T14:15:26;144139.00;;;291.40
14784;BMP180;7483;50.498;12.138;2023-02-01T14:17:55;144065.00;;;291.30
14784;BMP180;7483;50.498;12.138;2023-02-01T14:20:46;144038.00;;;291.40
14784;BMP180;7483;50.498;12.138;2023-02-01T14:23:26;144041.00;;;291.40
14784;BMP180;7483;50.498;12.138;2023-02-01T14:26:17;144096.00;;;291.50
14784;BMP180;7483;50.498;12.138;2023-02-01T14:28:59;144102.00;;;291.50